Time;durP1;ratioP1;P1;durP2;ratioP2;P2;SDS_P1;SDS_P2;PMS_P1;PMS_P2;Temp;Humidity;BMP_temperature;BMP_pressure;BME280_temperature;BME280_humidity;BME280_pressure;Samples;Min_cycle;Max_cycle;Signal;HPM_P1;HPM_P2
2022/03/18 00:02:41;;;;;;;50.60;30.77;;;;;;;;;;767286;181;919436;-66
2022/03/18 00:05:07;;;;;;;52.83;30.77;;;;;;;;;;768526;181;919265;-65
2022/03/18 00:07:33;;;;;;;61.77;34.03;;;;;;;;;;772818;181;919398;-65
2022/03/18 00:09:59;;;;;;;55.07;31.77;;;;;;;;;;767135;180;919027;-65
2022/03/18 00:12:25;;;;;;;54.63;33.30;;;;;;;;;;765443;182;919703;-64
2022/03/18 00:14:51;;;;;;;59.20;33.00;;;;;;;;;;774169;179;919324;-64
2022/03/18 00:17:16;;;;;;;66.73;35.63;;;;;;;;;;781937;179;1021588;-65
2022/03/18 00:19:42;;;;;;;56.43;32.97;;;;;;;;;;777850;179;919545;-64
2022/03/18 00:22:08;;;;;;;65.83;35.80;;;;;;;;;;773503;182;919661;-65
2022/03/18 00:24:34;;;;;;;54.67;34.80;;;;;;;;;;768533;179;918949;-65
2022/03/18 00:27:00;;;;;;;63.33;35.70;;;;;;;;;;767077;181;919568;-65
2022/03/18 00:29:26;;;;;;;63.80;35.43;;;;;;;;;;767959;181;919263;-65
2022/03/18 00:31:52;;;;;;;86.47;42.70;;;;;;;;;;783363;179;918810;-64
2022/03/18 00:34:17;;;;;;;65.70;39.43;;;;;;;;;;776941;177;920229;-65
2022/03/18 00:36:43;;;;;;;69.60;38.30;;;;;;;;;;773804;179;920555;-65
2022/03/18 00:39:09;;;;;;;60.33;33.17;;;;;;;;;;774323;182;917568;-65
2022/03/18 00:41:35;;;;;;;60.20;35.90;;;;;;;;;;767791;181;919803;-65
2022/03/18 00:44:01;;;;;;;67.00;39.50;;;;;;;;;;767666;179;919735;-65
2022/03/18 00:46:27;;;;;;;63.73;36.13;;;;;;;;;;784563;179;916440;-64
2022/03/18 00:53:56;;;;;;;64.70;40.30;;;;;;;;;;768521;180;919820;-66
2022/03/18 00:56:22;;;;;;;62.90;39.13;;;;;;;;;;775307;181;920411;-65
2022/03/18 00:58:48;;;;;;;62.00;36.37;;;;;;;;;;768393;182;1021972;-65
2022/03/18 01:01:13;;;;;;;66.50;36.37;;;;;;;;;;769829;178;918787;-65
2022/03/18 01:03:39;;;;;;;60.60;37.97;;;;;;;;;;775854;178;916745;-65
2022/03/18 01:06:05;;;;;;;58.10;37.00;;;;;;;;;;767219;178;916680;-66
2022/03/18 01:08:31;;;;;;;61.67;36.87;;;;;;;;;;765410;183;919939;-65
2022/03/18 01:10:57;;;;;;;64.80;36.63;;;;;;;;;;767484;181;938286;-66
2022/03/18 01:13:23;;;;;;;59.90;36.90;;;;;;;;;;774279;177;919291;-65
2022/03/18 01:15:49;;;;;;;61.27;37.77;;;;;;;;;;769675;179;919753;-66
2022/03/18 01:18:14;;;;;;;80.27;43.40;;;;;;;;;;764685;182;919710;-66
2022/03/18 01:20:40;;;;;;;76.20;43.33;;;;;;;;;;774799;180;940477;-64
2022/03/18 01:23:06;;;;;;;76.53;43.80;;;;;;;;;;782093;179;919956;-66
2022/03/18 01:25:33;;;;;;;70.37;39.00;;;;;;;;;;773361;179;1021294;-66
2022/03/18 01:28:01;;;;;;;70.47;41.13;;;;;;;;;;770535;180;918447;-66
2022/03/18 01:30:24;;;;;;;65.03;41.10;;;;;;;;;;769435;179;919619;-66
2022/03/18 01:32:50;;;;;;;68.77;41.37;;;;;;;;;;776340;179;919212;-65
2022/03/18 01:35:16;;;;;;;69.87;40.13;;;;;;;;;;776324;177;919433;-66
2022/03/18 01:37:42;;;;;;;68.10;41.40;;;;;;;;;;784912;176;919373;-65
2022/03/18 01:40:08;;;;;;;72.93;42.60;;;;;;;;;;781071;179;919438;-65
2022/03/18 01:42:34;;;;;;;59.17;39.07;;;;;;;;;;774158;180;919181;-66
2022/03/18 01:45:00;;;;;;;61.83;40.83;;;;;;;;;;780202;178;919594;-65
2022/03/18 01:47:26;;;;;;;66.33;39.17;;;;;;;;;;780224;179;919129;-66
2022/03/18 01:49:53;;;;;;;67.12;40.25;;;;;;;;;;777819;175;919034;-66
2022/03/18 01:52:17;;;;;;;68.50;41.40;;;;;;;;;;781412;179;918985;-66
2022/03/18 01:54:44;;;;;;;76.47;44.60;;;;;;;;;;776058;179;917478;-66
2022/03/18 01:57:10;;;;;;;74.23;41.67;;;;;;;;;;776673;179;919606;-65
2022/03/18 01:59:36;;;;;;;77.72;44.50;;;;;;;;;;777753;179;918819;-65
2022/03/18 02:02:02;;;;;;;76.37;47.30;;;;;;;;;;779883;177;918783;-65
2022/03/18 02:04:28;;;;;;;76.27;44.80;;;;;;;;;;781092;177;918981;-65
2022/03/18 02:06:54;;;;;;;81.80;46.20;;;;;;;;;;766127;178;919884;-65
2022/03/18 02:09:19;;;;;;;89.13;48.37;;;;;;;;;;775635;178;919478;-65
2022/03/18 02:11:45;;;;;;;86.47;47.40;;;;;;;;;;781010;178;920202;-66
2022/03/18 02:14:11;;;;;;;80.90;48.47;;;;;;;;;;776479;178;919131;-66
2022/03/18 02:16:39;;;;;;;91.03;50.20;;;;;;;;;;782144;179;919070;-66
2022/03/18 02:19:03;;;;;;;87.43;48.47;;;;;;;;;;778371;179;920121;-65
2022/03/18 02:21:29;;;;;;;84.80;49.13;;;;;;;;;;777155;179;1022040;-65
2022/03/18 02:23:54;;;;;;;95.35;50.50;;;;;;;;;;783052;180;920145;-66
2022/03/18 02:26:20;;;;;;;81.63;49.93;;;;;;;;;;773224;180;940771;-66
2022/03/18 02:28:46;;;;;;;87.50;46.97;;;;;;;;;;772980;179;918694;-65
2022/03/18 02:31:12;;;;;;;91.20;50.87;;;;;;;;;;776987;179;919529;-65
2022/03/18 02:33:38;;;;;;;81.57;50.00;;;;;;;;;;781765;179;919562;-65
2022/03/18 02:36:04;;;;;;;95.70;51.20;;;;;;;;;;769231;179;919416;-65
2022/03/18 02:38:30;;;;;;;86.23;51.70;;;;;;;;;;764920;182;952375;-66
2022/03/18 02:40:56;;;;;;;91.80;53.57;;;;;;;;;;770674;179;919082;-66
2022/03/18 02:43:21;;;;;;;92.20;49.70;;;;;;;;;;766520;179;919677;-65
2022/03/18 02:45:47;;;;;;;92.90;53.28;;;;;;;;;;771223;177;919318;-66
2022/03/18 02:48:13;;;;;;;91.37;50.07;;;;;;;;;;773319;178;918516;-66
2022/03/18 02:50:39;;;;;;;89.67;52.30;;;;;;;;;;769613;180;919799;-66
2022/03/18 02:53:05;;;;;;;99.47;53.83;;;;;;;;;;773829;179;919497;-65
2022/03/18 02:55:31;;;;;;;94.17;51.97;;;;;;;;;;773547;180;919390;-65
2022/03/18 02:57:57;;;;;;;95.23;52.87;;;;;;;;;;778296;180;1102798;-66
2022/03/18 03:00:25;;;;;;;96.93;54.97;;;;;;;;;;773604;180;919818;-65
2022/03/18 03:02:49;;;;;;;95.97;55.38;;;;;;;;;;769353;179;918779;-65
2022/03/18 03:10:18;;;;;;;99.10;55.00;;;;;;;;;;769459;179;919181;-65
2022/03/18 03:12:44;;;;;;;90.03;55.10;;;;;;;;;;776129;178;919472;-66
2022/03/18 03:15:10;;;;;;;99.47;57.63;;;;;;;;;;786939;177;934655;-65
2022/03/18 03:17:36;;;;;;;97.63;51.97;;;;;;;;;;786012;178;919122;-65
2022/03/18 03:20:02;;;;;;;87.57;52.50;;;;;;;;;;784850;178;1010412;-66
2022/03/18 03:22:28;;;;;;;82.10;51.47;;;;;;;;;;774629;178;919367;-66
2022/03/18 03:24:54;;;;;;;99.20;56.30;;;;;;;;;;767069;179;919598;-66
2022/03/18 03:27:20;;;;;;;102.57;53.00;;;;;;;;;;768164;178;919322;-66
2022/03/18 03:29:46;;;;;;;104.17;56.67;;;;;;;;;;769308;182;918960;-66
2022/03/18 03:32:12;;;;;;;93.43;52.03;;;;;;;;;;763701;180;919058;-65
2022/03/18 03:34:38;;;;;;;91.90;53.60;;;;;;;;;;768508;181;918900;-65
2022/03/18 03:37:04;;;;;;;102.70;56.97;;;;;;;;;;764646;180;919182;-65
2022/03/18 03:39:29;;;;;;;103.50;57.70;;;;;;;;;;770903;179;919529;-66
2022/03/18 03:41:55;;;;;;;97.90;56.25;;;;;;;;;;766383;179;919567;-66
2022/03/18 03:44:21;;;;;;;102.77;54.47;;;;;;;;;;770433;177;919116;-66
2022/03/18 03:46:47;;;;;;;97.50;56.10;;;;;;;;;;783865;176;918959;-65
2022/03/18 03:49:13;;;;;;;102.97;54.23;;;;;;;;;;771611;179;919065;-66
2022/03/18 03:51:39;;;;;;;93.00;52.37;;;;;;;;;;770674;179;1020873;-65
2022/03/18 03:54:05;;;;;;;98.45;55.78;;;;;;;;;;766855;180;919319;-65
2022/03/18 03:56:31;;;;;;;99.47;55.23;;;;;;;;;;781903;179;1021083;-66
2022/03/18 03:58:57;;;;;;;100.17;54.30;;;;;;;;;;768723;179;919677;-65
2022/03/18 04:01:22;;;;;;;97.62;56.37;;;;;;;;;;772251;179;918697;-65
2022/03/18 04:03:48;;;;;;;105.33;54.50;;;;;;;;;;787605;177;920150;-65
2022/03/18 04:06:15;;;;;;;88.23;53.90;;;;;;;;;;772311;180;918987;-66
2022/03/18 04:08:40;;;;;;;99.27;54.07;;;;;;;;;;772013;179;916476;-65
2022/03/18 04:11:06;;;;;;;89.10;52.47;;;;;;;;;;776655;179;919992;-65
2022/03/18 04:13:32;;;;;;;98.35;57.22;;;;;;;;;;767203;180;919480;-66
2022/03/18 04:15:58;;;;;;;92.13;53.67;;;;;;;;;;767115;179;919383;-65
2022/03/18 04:18:24;;;;;;;110.63;58.37;;;;;;;;;;776196;180;916919;-65
2022/03/18 04:20:50;;;;;;;88.37;57.23;;;;;;;;;;769362;180;969280;-66
2022/03/18 04:23:16;;;;;;;115.40;62.80;;;;;;;;;;768009;180;921464;-66
2022/03/18 04:25:42;;;;;;;89.70;53.20;;;;;;;;;;775352;176;923090;-66
2022/03/18 04:28:07;;;;;;;95.10;55.10;;;;;;;;;;780273;176;918339;-66
2022/03/18 04:30:33;;;;;;;104.53;56.60;;;;;;;;;;773932;177;916891;-65
2022/03/18 04:32:59;;;;;;;111.53;61.60;;;;;;;;;;777387;179;922486;-65
2022/03/18 04:35:26;;;;;;;98.67;58.67;;;;;;;;;;770523;180;920168;-65
2022/03/18 04:37:51;;;;;;;96.63;54.50;;;;;;;;;;764884;179;917425;-65
2022/03/18 04:40:17;;;;;;;93.63;55.30;;;;;;;;;;769514;179;913209;-66
2022/03/18 04:42:44;;;;;;;88.47;51.23;;;;;;;;;;783243;179;916238;-65
2022/03/18 04:45:09;;;;;;;103.27;51.90;;;;;;;;;;770198;180;913945;-65
2022/03/18 04:47:35;;;;;;;91.72;55.65;;;;;;;;;;772214;180;920188;-65
2022/03/18 04:50:01;;;;;;;96.10;52.73;;;;;;;;;;771063;179;916190;-65
2022/03/18 04:52:27;;;;;;;94.77;51.70;;;;;;;;;;777472;179;916160;-65
2022/03/18 04:54:52;;;;;;;100.50;55.00;;;;;;;;;;774869;179;919613;-65
2022/03/18 04:57:18;;;;;;;87.07;51.63;;;;;;;;;;770303;179;918819;-66
2022/03/18 04:59:44;;;;;;;102.10;57.10;;;;;;;;;;777976;179;790824;-65
2022/03/18 05:02:11;;;;;;;91.57;52.50;;;;;;;;;;768943;179;919420;-66
2022/03/18 05:04:37;;;;;;;89.30;54.70;;;;;;;;;;768401;180;918934;-64
2022/03/18 05:07:03;;;;;;;94.30;54.50;;;;;;;;;;778619;179;627952;-65
2022/03/18 05:09:29;;;;;;;98.53;54.27;;;;;;;;;;775291;179;713712;-66
2022/03/18 05:11:54;;;;;;;86.10;52.00;;;;;;;;;;775769;179;639484;-65
2022/03/18 05:14:20;;;;;;;81.47;52.50;;;;;;;;;;771958;179;866749;-65
2022/03/18 05:16:46;;;;;;;83.23;53.20;;;;;;;;;;769917;181;918922;-65
2022/03/18 05:19:12;;;;;;;93.93;53.40;;;;;;;;;;777701;179;919661;-65
2022/03/18 05:21:39;;;;;;;94.67;52.07;;;;;;;;;;771610;180;918888;-66
2022/03/18 05:24:06;;;;;;;101.50;55.03;;;;;;;;;;777545;177;919302;-65
2022/03/18 05:26:30;;;;;;;103.53;52.03;;;;;;;;;;769276;178;919298;-65
2022/03/18 05:28:57;;;;;;;97.97;57.13;;;;;;;;;;771110;179;920208;-65
2022/03/18 05:31:22;;;;;;;99.07;52.93;;;;;;;;;;776785;180;919346;-66
2022/03/18 05:33:48;;;;;;;98.70;55.30;;;;;;;;;;769007;179;920608;-66
2022/03/18 05:36:14;;;;;;;85.15;53.00;;;;;;;;;;772350;179;1123591;-65
2022/03/18 05:38:39;;;;;;;92.27;53.70;;;;;;;;;;773231;179;918449;-64
2022/03/18 05:41:05;;;;;;;106.28;56.30;;;;;;;;;;774595;179;919861;-67
2022/03/18 05:43:31;;;;;;;97.90;55.00;;;;;;;;;;768955;180;919629;-66
2022/03/18 05:45:57;;;;;;;96.50;53.63;;;;;;;;;;770294;180;921250;-65
2022/03/18 05:48:23;;;;;;;104.63;55.80;;;;;;;;;;777708;180;920156;-65
2022/03/18 05:50:48;;;;;;;102.83;59.37;;;;;;;;;;777769;177;943931;-66
2022/03/18 05:53:14;;;;;;;107.60;57.08;;;;;;;;;;774880;179;919952;-68
2022/03/18 05:58:12;;;;;;;106.12;56.85;;;;;;;;;;778595;179;919553;-66
2022/03/18 06:00:38;;;;;;;103.17;58.77;;;;;;;;;;767480;179;1057688;-65
2022/03/18 06:03:04;;;;;;;103.63;57.67;;;;;;;;;;769619;180;921503;-65
2022/03/18 06:05:29;;;;;;;114.47;60.97;;;;;;;;;;774337;180;918647;-65
2022/03/18 06:11:48;;;;;;;110.13;59.03;;;;;;;;;;776096;177;919770;-65
2022/03/18 06:12:53;;;;;;;112.57;61.77;;;;;;;;;;777808;180;918959;-65
2022/03/18 06:15:19;;;;;;;114.73;61.70;;;;;;;;;;770846;179;920372;-66
2022/03/18 06:17:45;;;;;;;114.37;61.33;;;;;;;;;;768059;179;920180;-65
2022/03/18 06:20:11;;;;;;;111.30;60.60;;;;;;;;;;772503;179;919207;-64
2022/03/18 06:22:37;;;;;;;124.00;63.60;;;;;;;;;;782950;179;918489;-66
2022/03/18 06:25:03;;;;;;;133.60;69.17;;;;;;;;;;772694;174;919251;-65
2022/03/18 06:27:29;;;;;;;119.07;64.43;;;;;;;;;;768488;179;919505;-65
2022/03/18 06:29:55;;;;;;;130.23;63.80;;;;;;;;;;775921;179;919436;-66
2022/03/18 06:32:20;;;;;;;140.83;70.27;;;;;;;;;;770234;179;919618;-65
2022/03/18 06:34:46;;;;;;;142.10;71.07;;;;;;;;;;771949;179;1021462;-66
2022/03/18 06:37:13;;;;;;;141.07;73.27;;;;;;;;;;776137;180;918933;-66
2022/03/18 06:39:39;;;;;;;135.47;72.03;;;;;;;;;;771196;179;941709;-66
2022/03/18 06:42:05;;;;;;;134.70;69.97;;;;;;;;;;772929;179;917511;-66
2022/03/18 06:44:31;;;;;;;155.43;77.10;;;;;;;;;;774988;179;919399;-66
2022/03/18 06:46:57;;;;;;;132.27;75.77;;;;;;;;;;777513;179;919366;-66
2022/03/18 06:49:23;;;;;;;152.93;77.85;;;;;;;;;;772576;178;919101;-65
2022/03/18 06:51:49;;;;;;;147.83;77.87;;;;;;;;;;768122;179;919010;-64
2022/03/18 06:54:15;;;;;;;149.57;78.27;;;;;;;;;;785411;176;921604;-64
2022/03/18 06:56:41;;;;;;;139.95;71.37;;;;;;;;;;770176;180;1021654;-64
2022/03/18 06:59:07;;;;;;;154.10;76.63;;;;;;;;;;773431;180;919973;-63
2022/03/18 07:01:33;;;;;;;158.60;84.27;;;;;;;;;;782928;178;919248;-64
2022/03/18 07:03:58;;;;;;;143.17;80.07;;;;;;;;;;773095;179;919644;-64
2022/03/18 07:06:24;;;;;;;164.33;91.03;;;;;;;;;;767120;180;919111;-63
2022/03/18 07:08:50;;;;;;;184.83;88.47;;;;;;;;;;770437;180;919832;-61
2022/03/18 07:11:16;;;;;;;200.83;95.73;;;;;;;;;;769847;180;919046;-63
2022/03/18 07:13:43;;;;;;;210.50;100.57;;;;;;;;;;764195;180;919789;-64
2022/03/18 07:18:39;;;;;;;192.43;95.17;;;;;;;;;;778134;180;1021037;-64
2022/03/18 07:21:05;;;;;;;192.10;94.93;;;;;;;;;;768164;182;917877;-63
2022/03/18 07:23:31;;;;;;;199.77;103.12;;;;;;;;;;774671;180;919749;-64
2022/03/18 07:25:57;;;;;;;200.07;96.97;;;;;;;;;;777123;177;919885;-65
2022/03/18 07:28:23;;;;;;;186.00;92.17;;;;;;;;;;769937;180;1021132;-65
2022/03/18 07:30:49;;;;;;;167.30;89.93;;;;;;;;;;763425;183;920533;-65
2022/03/18 07:33:15;;;;;;;163.83;86.90;;;;;;;;;;768168;177;919280;-66
2022/03/18 07:35:42;;;;;;;184.53;89.37;;;;;;;;;;771604;179;1223477;-64
2022/03/18 07:38:09;;;;;;;171.67;92.13;;;;;;;;;;770840;177;919974;-65
2022/03/18 07:40:33;;;;;;;188.87;90.93;;;;;;;;;;783217;177;1226266;-64
2022/03/18 07:42:58;;;;;;;182.57;88.20;;;;;;;;;;784769;179;918948;-65
2022/03/18 07:45:27;;;;;;;146.50;76.33;;;;;;;;;;779008;177;918911;-65
2022/03/18 07:47:53;;;;;;;148.07;81.37;;;;;;;;;;775097;179;921411;-65
2022/03/18 07:50:21;;;;;;;140.57;76.50;;;;;;;;;;773972;179;1021525;-64
2022/03/18 07:52:48;;;;;;;141.43;76.80;;;;;;;;;;777243;179;916113;-65
2022/03/18 07:55:13;;;;;;;138.70;81.17;;;;;;;;;;770490;180;915734;-67
2022/03/18 07:57:39;;;;;;;134.90;68.93;;;;;;;;;;770079;180;916550;-65
2022/03/18 08:00:05;;;;;;;125.40;63.60;;;;;;;;;;776259;181;918791;-63
2022/03/18 08:02:31;;;;;;;96.07;50.00;;;;;;;;;;769909;181;919001;-65
2022/03/18 08:04:57;;;;;;;103.17;55.10;;;;;;;;;;770906;178;915690;-63
2022/03/18 08:07:23;;;;;;;104.53;55.42;;;;;;;;;;770422;180;919205;-64
2022/03/18 08:09:49;;;;;;;92.27;53.40;;;;;;;;;;774946;182;896989;-64
2022/03/18 08:12:15;;;;;;;104.57;51.20;;;;;;;;;;771233;177;919166;-65
2022/03/18 08:14:41;;;;;;;96.37;51.85;;;;;;;;;;779804;178;919883;-64
2022/03/18 08:17:07;;;;;;;88.70;50.10;;;;;;;;;;781748;177;1531910;-64
2022/03/18 08:19:33;;;;;;;94.10;51.87;;;;;;;;;;769067;178;919640;-64
2022/03/18 08:21:59;;;;;;;75.43;46.17;;;;;;;;;;770588;179;919773;-64
2022/03/18 08:24:25;;;;;;;86.10;45.53;;;;;;;;;;777025;179;919205;-64
2022/03/18 08:26:50;;;;;;;81.73;45.17;;;;;;;;;;769251;179;919276;-64
2022/03/18 08:29:16;;;;;;;80.30;44.22;;;;;;;;;;772305;179;916408;-67
2022/03/18 08:31:42;;;;;;;81.23;46.00;;;;;;;;;;782041;180;919043;-65
2022/03/18 08:34:08;;;;;;;84.70;41.40;;;;;;;;;;765017;180;919659;-65
2022/03/18 08:36:34;;;;;;;75.83;43.97;;;;;;;;;;770074;179;919675;-64
2022/03/18 08:38:59;;;;;;;72.83;43.67;;;;;;;;;;777566;174;922406;-64
2022/03/18 08:41:25;;;;;;;72.60;46.37;;;;;;;;;;785004;177;919898;-64
2022/03/18 08:43:51;;;;;;;80.47;45.17;;;;;;;;;;780866;177;920529;-64
2022/03/18 08:46:17;;;;;;;82.10;46.70;;;;;;;;;;779176;177;928709;-65
2022/03/18 08:48:43;;;;;;;78.13;46.70;;;;;;;;;;786273;177;940352;-63
2022/03/18 08:51:10;;;;;;;82.07;46.00;;;;;;;;;;772396;180;913287;-63
2022/03/18 08:53:34;;;;;;;73.63;43.20;;;;;;;;;;772918;180;636987;-63
2022/03/18 08:56:00;;;;;;;75.20;43.47;;;;;;;;;;778544;180;618093;-63
2022/03/18 08:58:26;;;;;;;93.43;43.70;;;;;;;;;;765284;180;919834;-63
2022/03/18 09:00:52;;;;;;;80.90;44.00;;;;;;;;;;772206;180;622432;-63
2022/03/18 09:03:18;;;;;;;84.57;39.50;;;;;;;;;;770779;179;645768;-63
2022/03/18 09:05:44;;;;;;;67.53;39.57;;;;;;;;;;765394;182;637158;-64
2022/03/18 09:08:10;;;;;;;65.97;43.10;;;;;;;;;;771659;179;919650;-63
2022/03/18 09:10:35;;;;;;;69.47;38.83;;;;;;;;;;777740;178;943927;-64
2022/03/18 09:13:02;;;;;;;76.23;41.30;;;;;;;;;;780261;179;919963;-63
2022/03/18 09:15:27;;;;;;;66.13;41.03;;;;;;;;;;780413;176;919071;-63
2022/03/18 09:17:53;;;;;;;59.33;40.80;;;;;;;;;;776607;180;919028;-63
2022/03/18 09:20:19;;;;;;;56.13;36.27;;;;;;;;;;781172;178;917914;-63
2022/03/18 09:22:45;;;;;;;55.17;35.63;;;;;;;;;;769871;180;1018300;-64
2022/03/18 09:25:11;;;;;;;57.07;30.60;;;;;;;;;;777971;180;919421;-63
2022/03/18 09:27:36;;;;;;;57.17;34.97;;;;;;;;;;785076;180;915913;-64
2022/03/18 09:30:03;;;;;;;59.07;35.57;;;;;;;;;;776367;180;919455;-62
2022/03/18 09:32:28;;;;;;;59.03;36.20;;;;;;;;;;777495;180;919798;-65
2022/03/18 09:34:54;;;;;;;54.93;34.70;;;;;;;;;;769240;179;920775;-65
2022/03/18 09:37:20;;;;;;;54.10;34.00;;;;;;;;;;776941;182;918868;-63
2022/03/18 09:39:46;;;;;;;55.10;34.10;;;;;;;;;;767708;179;919456;-63
2022/03/18 09:42:12;;;;;;;61.73;36.50;;;;;;;;;;765675;182;919605;-64
2022/03/18 09:44:37;;;;;;;57.00;33.80;;;;;;;;;;772129;180;887319;-64
2022/03/18 09:47:04;;;;;;;55.90;35.43;;;;;;;;;;770706;181;919943;-63
2022/03/18 09:49:30;;;;;;;43.63;29.43;;;;;;;;;;769393;179;920294;-64
2022/03/18 09:51:55;;;;;;;51.30;30.85;;;;;;;;;;781923;179;919624;-64
2022/03/18 09:54:21;;;;;;;42.90;28.87;;;;;;;;;;782343;178;920487;-63
2022/03/18 09:56:47;;;;;;;36.97;24.90;;;;;;;;;;767098;179;919943;-64
2022/03/18 09:59:13;;;;;;;40.40;26.97;;;;;;;;;;769048;181;919855;-64
2022/03/18 10:01:39;;;;;;;47.43;29.53;;;;;;;;;;772911;182;919598;-65
2022/03/18 10:04:07;;;;;;;48.47;30.37;;;;;;;;;;776009;178;919327;-64
2022/03/18 10:06:32;;;;;;;43.03;27.80;;;;;;;;;;773950;179;920172;-63
2022/03/18 10:08:58;;;;;;;42.30;24.80;;;;;;;;;;779383;179;918213;-64
2022/03/18 10:11:23;;;;;;;41.08;26.52;;;;;;;;;;770260;179;919247;-63
2022/03/18 10:13:50;;;;;;;52.40;30.60;;;;;;;;;;776312;180;919645;-66
2022/03/18 10:16:19;;;;;;;42.87;27.40;;;;;;;;;;772305;180;816719;-64
2022/03/18 10:18:47;;;;;;;41.53;26.50;;;;;;;;;;775088;180;919522;-65
2022/03/18 10:21:13;;;;;;;41.57;26.60;;;;;;;;;;772256;178;919756;-66
2022/03/18 10:23:39;;;;;;;45.10;28.70;;;;;;;;;;771646;176;919476;-65
2022/03/18 10:26:05;;;;;;;44.10;27.70;;;;;;;;;;775409;179;918974;-65
2022/03/18 10:28:35;;;;;;;49.60;29.23;;;;;;;;;;771156;180;918880;-66
2022/03/18 10:31:15;;;;;;;41.30;24.10;;;;;;;;;;767644;180;919706;-67
2022/03/18 10:38:57;;;;;;;40.90;25.77;;;;;;;;;;769591;180;919306;-67
2022/03/18 10:41:24;;;;;;;36.97;26.07;;;;;;;;;;777441;180;920102;-66
2022/03/18 10:43:51;;;;;;;39.80;24.37;;;;;;;;;;771239;179;1020323;-66
2022/03/18 10:46:17;;;;;;;35.47;22.30;;;;;;;;;;771304;180;921605;-65
2022/03/18 10:48:43;;;;;;;39.40;25.00;;;;;;;;;;774233;180;919635;-65
2022/03/18 10:51:09;;;;;;;39.00;24.87;;;;;;;;;;770877;182;946187;-65
2022/03/18 10:53:35;;;;;;;33.10;22.57;;;;;;;;;;769669;179;1021529;-66
2022/03/18 10:56:01;;;;;;;35.13;23.07;;;;;;;;;;769282;179;920285;-66
2022/03/18 10:58:29;;;;;;;34.73;21.53;;;;;;;;;;775558;179;919159;-66
2022/03/18 11:00:54;;;;;;;34.20;21.90;;;;;;;;;;768962;180;919533;-67
2022/03/18 11:03:18;;;;;;;32.20;19.80;;;;;;;;;;770060;180;919660;-65
2022/03/18 11:05:45;;;;;;;32.77;23.20;;;;;;;;;;782422;179;919065;-66
2022/03/18 11:08:10;;;;;;;39.20;23.20;;;;;;;;;;770681;179;919848;-66
2022/03/18 11:13:07;;;;;;;36.37;23.90;;;;;;;;;;770334;179;919283;-65
2022/03/18 11:15:34;;;;;;;34.90;23.40;;;;;;;;;;778922;179;917685;-66
2022/03/18 11:18:03;;;;;;;34.10;23.53;;;;;;;;;;772630;178;917956;-66
2022/03/18 11:20:27;;;;;;;38.83;23.97;;;;;;;;;;776116;177;918537;-66
2022/03/18 11:22:51;;;;;;;37.37;22.80;;;;;;;;;;781323;179;920008;-67
2022/03/18 11:25:17;;;;;;;35.33;24.67;;;;;;;;;;770756;178;919902;-65
2022/03/18 11:27:44;;;;;;;43.33;27.30;;;;;;;;;;769734;179;920125;-66
2022/03/18 11:30:15;;;;;;;38.20;26.10;;;;;;;;;;783928;177;1022040;-65
2022/03/18 11:32:41;;;;;;;36.40;25.27;;;;;;;;;;779051;179;918833;-66
2022/03/18 11:35:07;;;;;;;37.03;24.57;;;;;;;;;;771613;179;919478;-67
2022/03/18 11:37:33;;;;;;;41.27;27.30;;;;;;;;;;771089;179;917850;-67
2022/03/18 11:40:05;;;;;;;36.13;25.23;;;;;;;;;;774694;178;919485;-67
2022/03/18 11:42:30;;;;;;;43.30;27.50;;;;;;;;;;770547;180;952249;-65
2022/03/18 11:44:58;;;;;;;46.93;27.47;;;;;;;;;;770471;179;919021;-66
2022/03/18 11:47:33;;;;;;;42.25;28.65;;;;;;;;;;772954;179;932427;-66
2022/03/18 11:49:59;;;;;;;45.03;24.57;;;;;;;;;;777039;179;919259;-66
2022/03/18 11:52:24;;;;;;;41.90;28.70;;;;;;;;;;777647;179;919175;-68
2022/03/18 11:54:52;;;;;;;45.25;25.88;;;;;;;;;;776737;179;920302;-66
2022/03/18 11:57:24;;;;;;;49.17;27.13;;;;;;;;;;757385;182;920270;-65
2022/03/18 11:59:53;;;;;;;45.03;26.83;;;;;;;;;;763508;183;918925;-66
2022/03/18 12:02:15;;;;;;;41.17;27.93;;;;;;;;;;755692;183;920311;-66
2022/03/18 12:04:42;;;;;;;51.27;31.90;;;;;;;;;;769618;180;921113;-67
2022/03/18 12:07:11;;;;;;;40.20;26.77;;;;;;;;;;775153;179;920506;-65
2022/03/18 12:09:55;;;;;;;42.17;29.30;;;;;;;;;;771932;180;919478;-65
2022/03/18 12:12:20;;;;;;;41.25;25.98;;;;;;;;;;775078;182;920165;-65
2022/03/18 12:14:46;;;;;;;50.57;29.13;;;;;;;;;;764333;181;919446;-66
2022/03/18 12:17:11;;;;;;;41.30;26.37;;;;;;;;;;770682;177;919997;-66
2022/03/18 12:19:37;;;;;;;48.33;32.50;;;;;;;;;;776019;179;915311;-66
2022/03/18 12:22:03;;;;;;;48.30;30.83;;;;;;;;;;779262;179;916911;-66
2022/03/18 12:24:30;;;;;;;44.57;28.47;;;;;;;;;;779651;177;922039;-66
2022/03/18 12:26:59;;;;;;;42.77;28.40;;;;;;;;;;773415;182;915197;-66
2022/03/18 12:29:25;;;;;;;42.90;29.87;;;;;;;;;;770656;179;919764;-67
2022/03/18 12:31:50;;;;;;;43.17;28.97;;;;;;;;;;776640;180;919270;-65
2022/03/18 12:34:17;;;;;;;43.50;26.57;;;;;;;;;;770765;179;919585;-65
2022/03/18 12:36:44;;;;;;;39.90;26.57;;;;;;;;;;781302;176;919130;-66
2022/03/18 12:39:07;;;;;;;45.03;28.53;;;;;;;;;;765552;179;919274;-65
2022/03/18 12:41:33;;;;;;;47.13;29.50;;;;;;;;;;764343;180;919716;-65
2022/03/18 12:43:59;;;;;;;47.57;30.30;;;;;;;;;;776232;180;919857;-66
2022/03/18 12:46:25;;;;;;;42.50;28.20;;;;;;;;;;769024;180;919393;-67
2022/03/18 12:48:52;;;;;;;40.90;26.73;;;;;;;;;;769753;178;1021500;-66
2022/03/18 12:51:17;;;;;;;45.50;30.60;;;;;;;;;;776077;180;1039320;-66
2022/03/18 12:53:46;;;;;;;45.67;28.53;;;;;;;;;;764150;180;919742;-66
2022/03/18 12:56:09;;;;;;;44.45;29.63;;;;;;;;;;765306;180;919109;-66
2022/03/18 12:58:37;;;;;;;45.35;28.00;;;;;;;;;;766093;180;921420;-65
2022/03/18 13:01:02;;;;;;;43.40;29.07;;;;;;;;;;773175;179;919277;-66
2022/03/18 13:03:29;;;;;;;45.50;29.13;;;;;;;;;;768777;180;919217;-65
2022/03/18 13:05:55;;;;;;;42.43;29.40;;;;;;;;;;774446;179;918733;-66
2022/03/18 13:08:21;;;;;;;41.13;28.83;;;;;;;;;;772490;179;1123877;-65
2022/03/18 13:10:53;;;;;;;42.67;29.80;;;;;;;;;;768318;179;920573;-66
2022/03/18 13:13:20;;;;;;;42.10;28.73;;;;;;;;;;769597;180;919362;-66
2022/03/18 13:15:47;;;;;;;45.97;28.40;;;;;;;;;;770849;179;918581;-66
2022/03/18 13:18:11;;;;;;;44.73;29.07;;;;;;;;;;780864;179;922407;-66
2022/03/18 13:20:37;;;;;;;44.70;31.77;;;;;;;;;;770732;179;919996;-65
2022/03/18 13:23:03;;;;;;;42.27;28.30;;;;;;;;;;769528;179;918549;-66
2022/03/18 13:25:28;;;;;;;42.37;27.73;;;;;;;;;;783181;179;919050;-66
2022/03/18 13:27:54;;;;;;;49.55;31.23;;;;;;;;;;771790;180;919078;-66
2022/03/18 13:32:53;;;;;;;46.17;30.40;;;;;;;;;;780013;176;922055;-66
2022/03/18 13:35:18;;;;;;;45.30;27.70;;;;;;;;;;776029;179;919463;-66
2022/03/18 13:37:43;;;;;;;42.30;27.97;;;;;;;;;;770760;178;918837;-67
2022/03/18 13:40:10;;;;;;;39.92;28.42;;;;;;;;;;771442;178;919084;-66
2022/03/18 13:42:35;;;;;;;45.20;31.67;;;;;;;;;;784877;177;919497;-67
2022/03/18 13:45:01;;;;;;;40.23;28.60;;;;;;;;;;777718;179;919412;-67
2022/03/18 13:47:28;;;;;;;42.10;31.37;;;;;;;;;;777290;180;920715;-67
2022/03/18 13:49:53;;;;;;;43.60;30.10;;;;;;;;;;783224;177;921950;-69
2022/03/18 13:52:19;;;;;;;42.30;27.93;;;;;;;;;;772182;179;981501;-67
2022/03/18 13:54:45;;;;;;;46.80;30.03;;;;;;;;;;778463;176;920095;-67
2022/03/18 13:57:11;;;;;;;45.45;30.90;;;;;;;;;;776007;178;914181;-65
2022/03/18 13:59:37;;;;;;;51.47;36.00;;;;;;;;;;767398;181;918281;-67
2022/03/18 14:02:03;;;;;;;55.53;34.80;;;;;;;;;;773813;176;916551;-66
2022/03/18 14:04:44;;;;;;;61.03;36.47;;;;;;;;;;775006;177;916801;-66
2022/03/18 14:07:10;;;;;;;56.27;36.83;;;;;;;;;;776906;178;919338;-67
2022/03/18 14:09:36;;;;;;;65.10;40.30;;;;;;;;;;776979;180;916356;-65
2022/03/18 14:12:09;;;;;;;69.80;41.63;;;;;;;;;;770433;180;920739;-65
2022/03/18 14:14:36;;;;;;;59.63;35.90;;;;;;;;;;770106;180;919830;-66
2022/03/18 14:17:04;;;;;;;67.60;39.55;;;;;;;;;;770819;179;919746;-65
2022/03/18 14:19:36;;;;;;;58.43;36.63;;;;;;;;;;761531;182;1124075;-68
2022/03/18 14:22:01;;;;;;;70.30;41.87;;;;;;;;;;771872;179;919772;-65
2022/03/18 14:24:27;;;;;;;81.30;40.73;;;;;;;;;;769189;179;919416;-66